Time;durP1;ratioP1;P1;durP2;ratioP2;P2;SDS_P1;SDS_P2;PMS_P1;PMS_P2;Temp;Humidity;BMP_temperature;BMP_pressure;BME280_temperature;BME280_humidity;BME280_pressure;Samples;Min_cycle;Max_cycle;Signal;HPM_P1;HPM_P2
2021/11/29 00:01:19;;;;;;;34.03;15.27;;;;;;;;;;5035238;28;20406;-62
2021/11/29 00:03:49;;;;;;;33.50;16.27;;;;;;;;;;5035468;28;20045;-62
2021/11/29 00:06:17;;;;;;;35.50;17.08;;;;;;;;;;5035188;28;20123;-63
2021/11/29 00:08:44;;;;;;;29.77;14.93;;;;;;;;;;5034710;28;20487;-62
2021/11/29 00:11:12;;;;;;;28.52;15.90;;;;;;;;;;5035203;28;20107;-64
2021/11/29 00:13:39;;;;;;;34.63;16.02;;;;;;;;;;5035238;28;20499;-63
2021/11/29 00:16:07;;;;;;;27.95;14.70;;;;;;;;;;5034981;28;20060;-64
2021/11/29 00:18:34;;;;;;;34.00;16.20;;;;;;;;;;5035222;28;20049;-62
2021/11/29 00:21:04;;;;;;;30.13;14.70;;;;;;;;;;5034978;28;20061;-63
2021/11/29 00:23:30;;;;;;;31.60;14.43;;;;;;;;;;5034866;28;20057;-63
2021/11/29 00:25:58;;;;;;;31.25;15.13;;;;;;;;;;5035169;28;20053;-62
2021/11/29 00:28:25;;;;;;;30.63;15.63;;;;;;;;;;5034712;28;20057;-63
2021/11/29 00:30:52;;;;;;;31.50;14.80;;;;;;;;;;5034787;28;20049;-62
2021/11/29 00:33:19;;;;;;;29.38;15.18;;;;;;;;;;5034437;28;20076;-61
2021/11/29 00:35:46;;;;;;;30.27;15.45;;;;;;;;;;5033863;28;20530;-62
2021/11/29 00:38:15;;;;;;;29.20;15.27;;;;;;;;;;5034535;28;20115;-62
2021/11/29 00:40:44;;;;;;;29.50;15.60;;;;;;;;;;5034389;28;20065;-61
2021/11/29 00:43:10;;;;;;;39.75;16.17;;;;;;;;;;5034681;28;20052;-64
2021/11/29 00:45:37;;;;;;;35.13;16.05;;;;;;;;;;5034329;28;20049;-62
2021/11/29 00:48:05;;;;;;;32.13;16.60;;;;;;;;;;5034126;28;20410;-63
2021/11/29 00:50:36;;;;;;;33.50;15.60;;;;;;;;;;5034519;28;20403;-61
2021/11/29 00:53:04;;;;;;;37.88;16.05;;;;;;;;;;5034658;28;20438;-63
2021/11/29 00:55:32;;;;;;;34.03;15.98;;;;;;;;;;5034304;28;20414;-63
2021/11/29 00:57:59;;;;;;;35.45;16.30;;;;;;;;;;5033889;28;20391;-62
2021/11/29 01:00:28;;;;;;;36.38;16.23;;;;;;;;;;5034120;28;20053;-63
2021/11/29 01:02:55;;;;;;;31.02;16.00;;;;;;;;;;5033908;28;20465;-62
2021/11/29 01:05:23;;;;;;;29.70;15.15;;;;;;;;;;5034134;28;20064;-63
2021/11/29 01:07:51;;;;;;;34.10;16.05;;;;;;;;;;5033610;28;20502;-61
2021/11/29 01:10:19;;;;;;;35.00;16.77;;;;;;;;;;5033884;28;20052;-64
2021/11/29 01:12:48;;;;;;;33.47;17.10;;;;;;;;;;5033617;28;20046;-64
2021/11/29 01:15:18;;;;;;;32.38;15.82;;;;;;;;;;5033720;28;20487;-61
2021/11/29 01:17:48;;;;;;;33.92;15.50;;;;;;;;;;5034079;28;20103;-61
2021/11/29 01:20:15;;;;;;;41.78;17.10;;;;;;;;;;5033823;28;20513;-62
2021/11/29 01:22:44;;;;;;;33.33;16.27;;;;;;;;;;5033687;28;20513;-62
2021/11/29 01:25:12;;;;;;;32.92;15.13;;;;;;;;;;5033692;28;20049;-61
2021/11/29 01:27:39;;;;;;;33.92;16.35;;;;;;;;;;5033262;28;20140;-63
2021/11/29 01:30:09;;;;;;;36.30;16.75;;;;;;;;;;5033312;28;20046;-62
2021/11/29 01:32:36;;;;;;;39.72;18.05;;;;;;;;;;5033638;28;20519;-61
2021/11/29 01:35:04;;;;;;;38.33;17.38;;;;;;;;;;5033563;28;20052;-60
2021/11/29 01:37:31;;;;;;;36.38;17.80;;;;;;;;;;5032983;28;20056;-62
2021/11/29 01:39:58;;;;;;;35.67;17.50;;;;;;;;;;5033284;28;20057;-63
2021/11/29 01:42:25;;;;;;;38.80;16.50;;;;;;;;;;5032885;28;20541;-60
2021/11/29 01:44:52;;;;;;;35.42;16.25;;;;;;;;;;5033276;28;20045;-61
2021/11/29 01:47:23;;;;;;;35.15;15.93;;;;;;;;;;5032128;28;20046;-61
2021/11/29 01:49:50;;;;;;;33.20;16.23;;;;;;;;;;5032983;28;20049;-62
2021/11/29 01:52:17;;;;;;;38.42;16.92;;;;;;;;;;5032887;28;20510;-63
2021/11/29 01:54:44;;;;;;;34.65;16.60;;;;;;;;;;5033017;28;20130;-62
2021/11/29 01:57:11;;;;;;;34.55;16.13;;;;;;;;;;5032822;28;20152;-63
2021/11/29 01:59:38;;;;;;;32.83;16.48;;;;;;;;;;5032969;28;20387;-62
2021/11/29 02:02:06;;;;;;;37.38;17.45;;;;;;;;;;5032949;28;20057;-63
2021/11/29 02:04:34;;;;;;;35.47;16.23;;;;;;;;;;5033045;28;20088;-62
2021/11/29 02:07:02;;;;;;;32.65;16.83;;;;;;;;;;5033192;28;20076;-61
2021/11/29 02:09:28;;;;;;;35.38;15.32;;;;;;;;;;5032560;28;20407;-58
2021/11/29 02:11:56;;;;;;;35.28;15.77;;;;;;;;;;5033002;28;20060;-62
2021/11/29 02:14:23;;;;;;;36.10;16.80;;;;;;;;;;5033360;28;20049;-62
2021/11/29 02:16:50;;;;;;;33.65;16.83;;;;;;;;;;5033169;28;20044;-60
2021/11/29 02:19:18;;;;;;;35.33;16.50;;;;;;;;;;5032379;28;20057;-62
2021/11/29 02:21:46;;;;;;;35.70;16.42;;;;;;;;;;5032387;28;20053;-63
2021/11/29 02:24:14;;;;;;;32.38;15.30;;;;;;;;;;5032333;28;20054;-61
2021/11/29 02:26:41;;;;;;;33.72;15.57;;;;;;;;;;5032395;28;20053;-60
2021/11/29 02:29:11;;;;;;;36.97;16.48;;;;;;;;;;5032379;28;20061;-62
2021/11/29 02:31:40;;;;;;;40.22;16.63;;;;;;;;;;5032393;28;20053;-63
2021/11/29 02:34:10;;;;;;;34.25;15.75;;;;;;;;;;5032173;28;20057;-62
2021/11/29 02:36:37;;;;;;;35.28;16.88;;;;;;;;;;5032083;28;20051;-62
2021/11/29 02:39:07;;;;;;;34.42;15.52;;;;;;;;;;5031838;28;20072;-62
2021/11/29 02:41:34;;;;;;;40.70;18.07;;;;;;;;;;5032453;28;20057;-63
2021/11/29 02:44:02;;;;;;;34.80;15.85;;;;;;;;;;5032086;28;20080;-61
2021/11/29 02:46:30;;;;;;;40.00;17.23;;;;;;;;;;5032117;28;20052;-60
2021/11/29 02:48:57;;;;;;;33.58;18.10;;;;;;;;;;5031534;28;20053;-63
2021/11/29 02:51:27;;;;;;;37.60;16.55;;;;;;;;;;5031910;28;20406;-63
2021/11/29 02:53:58;;;;;;;40.63;18.50;;;;;;;;;;5032374;28;20064;-62
2021/11/29 02:56:26;;;;;;;34.40;17.05;;;;;;;;;;5032162;28;20045;-61
2021/11/29 02:58:53;;;;;;;42.00;18.25;;;;;;;;;;5034658;28;20050;-63
2021/11/29 03:01:20;;;;;;;40.58;19.00;;;;;;;;;;5036222;28;20071;-61
2021/11/29 03:03:49;;;;;;;35.08;17.40;;;;;;;;;;5036077;28;20053;-61
2021/11/29 03:06:16;;;;;;;44.88;19.13;;;;;;;;;;5036073;28;20045;-61
2021/11/29 03:08:44;;;;;;;44.45;19.58;;;;;;;;;;5036239;28;20049;-62
2021/11/29 03:11:11;;;;;;;41.80;18.60;;;;;;;;;;5036042;28;20056;-60
2021/11/29 03:13:39;;;;;;;40.42;19.23;;;;;;;;;;5036250;28;20414;-60
2021/11/29 03:16:06;;;;;;;42.55;19.52;;;;;;;;;;5036199;28;20045;-60
2021/11/29 03:18:35;;;;;;;43.22;18.05;;;;;;;;;;5036079;28;20053;-61
2021/11/29 03:21:02;;;;;;;39.33;19.13;;;;;;;;;;5036060;28;20064;-63
2021/11/29 03:23:30;;;;;;;41.63;18.35;;;;;;;;;;5036357;28;20042;-62
2021/11/29 03:25:58;;;;;;;45.58;19.45;;;;;;;;;;5035677;28;20049;-62
2021/11/29 03:28:25;;;;;;;45.05;18.98;;;;;;;;;;5035507;28;20049;-62
2021/11/29 03:30:53;;;;;;;44.03;19.20;;;;;;;;;;5035587;28;20066;-60
2021/11/29 03:33:20;;;;;;;43.85;19.73;;;;;;;;;;5036099;28;20050;-61
2021/11/29 03:35:47;;;;;;;45.67;20.25;;;;;;;;;;5035768;28;20407;-63
2021/11/29 03:38:14;;;;;;;41.70;19.40;;;;;;;;;;5036082;28;20053;-61
2021/11/29 03:40:41;;;;;;;46.80;20.35;;;;;;;;;;5035619;28;20060;-61
2021/11/29 03:43:08;;;;;;;46.25;20.23;;;;;;;;;;5035127;28;20490;-62
2021/11/29 03:45:35;;;;;;;41.60;19.60;;;;;;;;;;5035554;28;20049;-62
2021/11/29 03:48:03;;;;;;;47.13;20.65;;;;;;;;;;5035332;28;20045;-62
2021/11/29 03:50:30;;;;;;;43.85;20.35;;;;;;;;;;5035418;28;20049;-63
2021/11/29 03:52:57;;;;;;;44.25;19.13;;;;;;;;;;5035103;28;20050;-62
2021/11/29 03:55:24;;;;;;;38.78;18.80;;;;;;;;;;5035156;28;20056;-62
2021/11/29 03:57:51;;;;;;;41.15;19.38;;;;;;;;;;5035179;28;20520;-61
2021/11/29 04:00:18;;;;;;;41.72;20.42;;;;;;;;;;5035044;28;20050;-62
2021/11/29 04:02:45;;;;;;;46.00;20.92;;;;;;;;;;5035318;28;20060;-61
2021/11/29 04:05:14;;;;;;;44.60;19.35;;;;;;;;;;5034717;28;20068;-63
2021/11/29 04:07:41;;;;;;;45.75;20.88;;;;;;;;;;5035206;28;20046;-62
2021/11/29 04:10:09;;;;;;;43.65;19.23;;;;;;;;;;5033856;28;20046;-62
2021/11/29 04:12:36;;;;;;;43.10;20.23;;;;;;;;;;5034727;28;20049;-63
2021/11/29 04:15:03;;;;;;;43.70;19.85;;;;;;;;;;5034721;28;20041;-63
2021/11/29 04:17:30;;;;;;;43.33;19.13;;;;;;;;;;5034554;28;20506;-63
2021/11/29 04:19:57;;;;;;;45.05;20.20;;;;;;;;;;5035015;28;20046;-63
2021/11/29 04:22:26;;;;;;;43.45;19.15;;;;;;;;;;5034563;28;20057;-63
2021/11/29 04:24:54;;;;;;;41.20;19.42;;;;;;;;;;5034843;28;20056;-61
2021/11/29 04:27:21;;;;;;;42.08;19.73;;;;;;;;;;5034925;28;20491;-63
2021/11/29 04:29:49;;;;;;;45.63;21.02;;;;;;;;;;5035078;28;20396;-62
2021/11/29 04:32:16;;;;;;;45.13;20.13;;;;;;;;;;5034566;28;20400;-61
2021/11/29 04:34:43;;;;;;;47.40;20.65;;;;;;;;;;5034733;28;20068;-63
2021/11/29 04:37:10;;;;;;;48.33;21.50;;;;;;;;;;5034484;28;20050;-63
2021/11/29 04:39:38;;;;;;;47.88;21.08;;;;;;;;;;5034526;28;20803;-61
2021/11/29 04:42:06;;;;;;;44.50;21.40;;;;;;;;;;5034293;28;20430;-62
2021/11/29 04:44:33;;;;;;;42.92;20.48;;;;;;;;;;5034469;28;20050;-61
2021/11/29 04:47:00;;;;;;;48.17;21.35;;;;;;;;;;5034067;28;20521;-62
2021/11/29 04:49:27;;;;;;;44.58;19.58;;;;;;;;;;5034853;28;20054;-62
2021/11/29 04:51:54;;;;;;;43.50;20.60;;;;;;;;;;5034161;28;20501;-61
2021/11/29 04:54:21;;;;;;;49.97;21.70;;;;;;;;;;5034796;28;20474;-61
2021/11/29 04:56:49;;;;;;;45.30;21.77;;;;;;;;;;5034213;28;20060;-62
2021/11/29 04:59:16;;;;;;;44.35;20.38;;;;;;;;;;5034554;28;20057;-62
2021/11/29 05:01:43;;;;;;;54.85;23.55;;;;;;;;;;5034036;28;20057;-63
2021/11/29 05:04:10;;;;;;;48.47;21.98;;;;;;;;;;5034241;28;20056;-61
2021/11/29 05:06:38;;;;;;;47.92;22.10;;;;;;;;;;5034077;28;20502;-63
2021/11/29 05:09:06;;;;;;;49.42;21.40;;;;;;;;;;5033941;28;20383;-63
2021/11/29 05:11:33;;;;;;;48.10;20.67;;;;;;;;;;5033587;28;20076;-63
2021/11/29 05:14:01;;;;;;;49.97;20.52;;;;;;;;;;5033675;28;20046;-61
2021/11/29 05:16:29;;;;;;;40.60;19.33;;;;;;;;;;5033759;28;20045;-62
2021/11/29 05:18:56;;;;;;;41.50;18.95;;;;;;;;;;5033624;28;20052;-61
2021/11/29 05:21:23;;;;;;;49.58;20.08;;;;;;;;;;5033303;28;20041;-61
2021/11/29 05:23:51;;;;;;;45.97;21.08;;;;;;;;;;5033629;28;20092;-60
2021/11/29 05:26:20;;;;;;;49.92;22.58;;;;;;;;;;5033555;28;20052;-61
2021/11/29 05:28:47;;;;;;;45.58;21.60;;;;;;;;;;5033402;28;20119;-61
2021/11/29 05:31:15;;;;;;;54.95;21.02;;;;;;;;;;5033462;28;20082;-60
2021/11/29 05:33:43;;;;;;;45.47;21.20;;;;;;;;;;5033651;28;20049;-62
2021/11/29 05:36:10;;;;;;;45.45;21.30;;;;;;;;;;5033646;28;20072;-61
2021/11/29 05:38:37;;;;;;;49.08;20.58;;;;;;;;;;5033020;28;20416;-62
2021/11/29 05:41:04;;;;;;;46.83;21.63;;;;;;;;;;5033268;28;20049;-63
2021/11/29 05:43:32;;;;;;;45.63;20.90;;;;;;;;;;5033437;28;20483;-61
2021/11/29 05:46:00;;;;;;;41.42;20.35;;;;;;;;;;5033296;28;20513;-62
2021/11/29 05:48:30;;;;;;;49.55;23.13;;;;;;;;;;5033064;28;20503;-62
2021/11/29 05:50:58;;;;;;;46.75;21.65;;;;;;;;;;5044162;22;20046;-66
2021/11/29 05:53:25;;;;;;;49.53;20.92;;;;;;;;;;5013666;28;20049;-67
2021/11/29 05:55:53;;;;;;;40.38;19.17;;;;;;;;;;5013094;28;20050;-66
2021/11/29 05:58:20;;;;;;;48.63;20.85;;;;;;;;;;5012716;28;20060;-67
2021/11/29 06:00:48;;;;;;;46.47;20.50;;;;;;;;;;5012732;28;20054;-67
2021/11/29 06:03:14;;;;;;;44.60;19.98;;;;;;;;;;5012848;28;20060;-66
2021/11/29 06:05:43;;;;;;;48.10;19.85;;;;;;;;;;5013264;28;20050;-67
2021/11/29 06:08:10;;;;;;;43.25;19.10;;;;;;;;;;5013171;28;20503;-67
2021/11/29 06:10:37;;;;;;;38.30;17.42;;;;;;;;;;5012923;28;20056;-67
2021/11/29 06:13:04;;;;;;;42.95;20.58;;;;;;;;;;5012511;28;20045;-67
2021/11/29 06:15:31;;;;;;;40.05;18.77;;;;;;;;;;5012612;28;20049;-67
2021/11/29 06:17:58;;;;;;;44.38;17.70;;;;;;;;;;5012441;28;20050;-66
2021/11/29 06:20:25;;;;;;;43.50;19.00;;;;;;;;;;5013075;28;20054;-67
2021/11/29 06:22:56;;;;;;;44.35;20.35;;;;;;;;;;5012937;28;20052;-67
2021/11/29 06:25:24;;;;;;;42.30;19.50;;;;;;;;;;5012731;28;20046;-67
2021/11/29 06:27:52;;;;;;;43.78;19.13;;;;;;;;;;5012217;28;20306;-68
2021/11/29 06:30:20;;;;;;;42.95;19.42;;;;;;;;;;5013052;28;20058;-68
2021/11/29 06:32:47;;;;;;;39.70;17.23;;;;;;;;;;5012106;28;20066;-66
2021/11/29 06:35:15;;;;;;;39.45;18.83;;;;;;;;;;5012728;28;20049;-66
2021/11/29 06:37:43;;;;;;;39.55;19.00;;;;;;;;;;5012557;28;20050;-66
2021/11/29 06:40:13;;;;;;;46.45;19.95;;;;;;;;;;5012501;28;20100;-69
2021/11/29 06:42:40;;;;;;;39.22;18.73;;;;;;;;;;5012239;28;20569;-70
2021/11/29 06:45:07;;;;;;;41.95;19.23;;;;;;;;;;5012231;28;20117;-69
2021/11/29 06:47:34;;;;;;;38.17;17.60;;;;;;;;;;5012159;28;20136;-68
2021/11/29 06:50:01;;;;;;;44.75;19.08;;;;;;;;;;5012235;28;20073;-68
2021/11/29 06:52:28;;;;;;;44.60;19.45;;;;;;;;;;5012120;28;20410;-68
2021/11/29 06:54:55;;;;;;;40.53;19.90;;;;;;;;;;5012774;28;20057;-68
2021/11/29 06:57:24;;;;;;;37.17;17.25;;;;;;;;;;5012067;28;20053;-69
2021/11/29 06:59:51;;;;;;;36.58;18.20;;;;;;;;;;5011959;28;20046;-69
2021/11/29 07:02:19;;;;;;;37.10;18.23;;;;;;;;;;5012106;28;20054;-68
2021/11/29 07:04:46;;;;;;;45.15;20.63;;;;;;;;;;5012074;28;20085;-69
2021/11/29 07:07:13;;;;;;;44.00;19.67;;;;;;;;;;5012809;28;20049;-69
2021/11/29 07:09:40;;;;;;;41.67;19.27;;;;;;;;;;5011895;28;20090;-68
2021/11/29 07:12:08;;;;;;;40.25;19.98;;;;;;;;;;5011874;28;20045;-68
2021/11/29 07:14:37;;;;;;;42.63;19.33;;;;;;;;;;5011861;28;20410;-69
2021/11/29 07:17:05;;;;;;;43.78;20.25;;;;;;;;;;5012113;28;20053;-68
2021/11/29 07:19:31;;;;;;;42.15;18.35;;;;;;;;;;5011559;28;20046;-68
2021/11/29 07:21:59;;;;;;;44.50;18.80;;;;;;;;;;5011765;28;20521;-68
2021/11/29 07:24:25;;;;;;;42.85;19.92;;;;;;;;;;5011836;28;20061;-70
2021/11/29 07:26:52;;;;;;;53.03;21.40;;;;;;;;;;5011975;28;20050;-69
2021/11/29 07:29:19;;;;;;;45.25;19.95;;;;;;;;;;5011541;28;20337;-69
2021/11/29 07:31:48;;;;;;;43.28;18.65;;;;;;;;;;5011794;28;20052;-68
2021/11/29 07:34:15;;;;;;;49.67;19.75;;;;;;;;;;5011818;28;20058;-68
2021/11/29 07:36:42;;;;;;;43.13;19.15;;;;;;;;;;5011698;28;20056;-70
2021/11/29 07:39:10;;;;;;;51.05;21.23;;;;;;;;;;5011639;28;20045;-69
2021/11/29 07:41:37;;;;;;;44.88;20.15;;;;;;;;;;5011380;28;20089;-69
2021/11/29 07:44:04;;;;;;;44.53;20.85;;;;;;;;;;5012964;28;20076;-68
2021/11/29 07:46:31;;;;;;;45.78;20.02;;;;;;;;;;5015716;28;20054;-69
2021/11/29 07:49:00;;;;;;;50.95;21.45;;;;;;;;;;5015467;28;20069;-69
2021/11/29 07:51:27;;;;;;;51.30;21.67;;;;;;;;;;5015174;28;20054;-70
2021/11/29 07:53:54;;;;;;;44.78;20.13;;;;;;;;;;5015201;28;20495;-69
2021/11/29 07:56:21;;;;;;;50.10;22.88;;;;;;;;;;5015057;28;20060;-70
2021/11/29 07:58:48;;;;;;;51.75;21.25;;;;;;;;;;5015137;28;20065;-68
2021/11/29 08:01:16;;;;;;;48.58;22.02;;;;;;;;;;5014845;28;20060;-70
2021/11/29 08:03:43;;;;;;;50.47;22.08;;;;;;;;;;5007427;28;20132;-69
2021/11/29 08:06:11;;;;;;;54.30;23.40;;;;;;;;;;5008703;28;20046;-68
2021/11/29 08:08:38;;;;;;;55.75;23.50;;;;;;;;;;5008439;28;20076;-68
2021/11/29 08:11:06;;;;;;;51.70;21.55;;;;;;;;;;5009772;28;20050;-69
2021/11/29 08:13:32;;;;;;;51.88;21.38;;;;;;;;;;5009482;28;20040;-69
2021/11/29 08:15:59;;;;;;;52.03;21.60;;;;;;;;;;5009928;28;20411;-69
2021/11/29 08:18:27;;;;;;;46.65;21.17;;;;;;;;;;5008918;28;20056;-68
2021/11/29 08:20:54;;;;;;;46.28;21.15;;;;;;;;;;5009662;28;20049;-69
2021/11/29 08:23:22;;;;;;;49.40;20.98;;;;;;;;;;5008981;28;20687;-68
2021/11/29 08:25:49;;;;;;;55.80;22.52;;;;;;;;;;5008569;28;20041;-69
2021/11/29 08:28:16;;;;;;;51.38;21.95;;;;;;;;;;5008210;28;20038;-68
2021/11/29 08:30:44;;;;;;;44.05;20.58;;;;;;;;;;5008465;28;20042;-68
2021/11/29 08:33:12;;;;;;;46.60;20.27;;;;;;;;;;5009294;28;20049;-69
2021/11/29 08:35:40;;;;;;;48.58;20.25;;;;;;;;;;5009051;28;20045;-69
2021/11/29 08:38:07;;;;;;;47.55;19.98;;;;;;;;;;5008527;28;20053;-71
2021/11/29 08:40:36;;;;;;;44.70;19.27;;;;;;;;;;5008832;28;20069;-69
2021/11/29 08:43:07;;;;;;;50.60;18.65;;;;;;;;;;5008651;28;20065;-70
2021/11/29 08:45:34;;;;;;;;;;;;;;;;;;5009122;28;20058;-69
2021/11/29 08:48:02;;;;;;;45.70;18.33;;;;;;;;;;5008844;28;20317;-69
2021/11/29 08:50:29;;;;;;;42.90;18.52;;;;;;;;;;5008576;28;20235;-68
2021/11/29 08:52:56;;;;;;;42.58;18.00;;;;;;;;;;5008151;28;20045;-69
2021/11/29 08:55:23;;;;;;;41.53;18.13;;;;;;;;;;5008075;28;20064;-70
2021/11/29 08:57:51;;;;;;;40.10;16.42;;;;;;;;;;5008596;28;20053;-69
2021/11/29 09:00:19;;;;;;;36.50;14.55;;;;;;;;;;5008991;28;20056;-68
2021/11/29 09:02:48;;;;;;;36.92;17.30;;;;;;;;;;5009125;28;20058;-69
2021/11/29 09:05:17;;;;;;;34.92;15.02;;;;;;;;;;5008714;28;20053;-68
2021/11/29 09:07:45;;;;;;;42.58;16.33;;;;;;;;;;5010141;28;20426;-69
2021/11/29 09:10:13;;;;;;;39.60;15.50;;;;;;;;;;5010033;28;20064;-70
2021/11/29 09:12:40;;;;;;;36.10;15.65;;;;;;;;;;5008409;28;20499;-69
2021/11/29 09:15:11;;;;;;;37.25;14.82;;;;;;;;;;5008254;28;20058;-68
2021/11/29 09:17:38;;;;;;;;;;;;;;;;;;5007694;28;20050;-68
2021/11/29 09:20:07;;;;;;;37.58;14.38;;;;;;;;;;5008024;28;19925;-68
2021/11/29 09:22:35;;;;;;;36.97;15.63;;;;;;;;;;5008097;28;20149;-69
2021/11/29 09:25:02;;;;;;;40.03;15.32;;;;;;;;;;5007660;28;20230;-69
2021/11/29 09:27:29;;;;;;;39.70;16.02;;;;;;;;;;5007720;28;20053;-72
2021/11/29 09:29:56;;;;;;;36.95;14.93;;;;;;;;;;5007319;28;20518;-70
2021/11/29 09:32:25;;;;;;;41.90;17.23;;;;;;;;;;5007629;28;20062;-69
2021/11/29 09:34:52;;;;;;;42.45;15.50;;;;;;;;;;5007387;28;20045;-69
2021/11/29 09:37:20;;;;;;;41.75;15.52;;;;;;;;;;5007940;28;20437;-70
2021/11/29 09:39:48;;;;;;;43.08;16.23;;;;;;;;;;5008228;28;20058;-70
2021/11/29 09:42:15;;;;;;;40.30;15.38;;;;;;;;;;5008109;28;20052;-69
2021/11/29 09:44:42;;;;;;;39.35;15.30;;;;;;;;;;5008662;28;20049;-72
2021/11/29 09:47:10;;;;;;;41.67;16.27;;;;;;;;;;5008901;28;20352;-69
2021/11/29 09:49:39;;;;;;;43.47;16.83;;;;;;;;;;5007567;28;20050;-70
2021/11/29 09:52:06;;;;;;;43.20;16.60;;;;;;;;;;5007284;28;20061;-69
2021/11/29 09:54:33;;;;;;;47.22;16.92;;;;;;;;;;5007470;28;20049;-69
2021/11/29 09:57:00;;;;;;;43.70;17.35;;;;;;;;;;5007540;28;20060;-69
2021/11/29 09:59:27;;;;;;;40.60;16.70;;;;;;;;;;5006466;28;20046;-72
2021/11/29 10:01:55;;;;;;;44.25;17.48;;;;;;;;;;5007121;28;20506;-70
2021/11/29 10:04:22;;;;;;;47.13;16.77;;;;;;;;;;5006573;28;20061;-71
2021/11/29 10:06:55;;;;;;;41.22;16.85;;;;;;;;;;5006239;28;20323;-69
2021/11/29 10:09:32;;;;;;;46.47;17.70;;;;;;;;;;5006151;28;20096;-71
2021/11/29 10:12:02;;;;;;;45.15;17.90;;;;;;;;;;5008061;28;20048;-69
2021/11/29 10:14:29;;;;;;;43.15;17.42;;;;;;;;;;5007147;28;20046;-70
2021/11/29 10:17:01;;;;;;;46.90;17.77;;;;;;;;;;5006059;28;20265;-69
2021/11/29 10:19:36;;;;;;;43.97;17.45;;;;;;;;;;5006017;28;20057;-69
2021/11/29 10:22:16;;;;;;;44.35;17.60;;;;;;;;;;5007169;28;20042;-72
2021/11/29 10:24:52;;;;;;;47.58;16.83;;;;;;;;;;5006769;28;20048;-69
2021/11/29 10:27:20;;;;;;;48.67;19.02;;;;;;;;;;5006397;28;20050;-73
2021/11/29 10:29:52;;;;;;;45.22;17.83;;;;;;;;;;5006731;28;20046;-69
2021/11/29 10:32:36;;;;;;;36.83;16.50;;;;;;;;;;5007211;28;20487;-70
2021/11/29 10:35:04;;;;;;;42.97;15.70;;;;;;;;;;5006605;28;20511;-71
2021/11/29 10:37:33;;;;;;;45.30;17.23;;;;;;;;;;5006286;28;20045;-71
2021/11/29 10:40:02;;;;;;;37.70;15.65;;;;;;;;;;5006850;28;20060;-69
2021/11/29 10:42:29;;;;;;;40.08;15.38;;;;;;;;;;5006351;28;20088;-72
2021/11/29 10:44:57;;;;;;;43.80;17.30;;;;;;;;;;5006854;28;20104;-69
2021/11/29 10:47:26;;;;;;;46.38;18.35;;;;;;;;;;5007119;28;20483;-69
2021/11/29 10:49:56;;;;;;;43.10;16.90;;;;;;;;;;5006709;28;20052;-70
2021/11/29 10:52:24;;;;;;;44.35;17.33;;;;;;;;;;5006304;28;20041;-70
2021/11/29 10:54:54;;;;;;;41.40;16.20;;;;;;;;;;5006565;28;20050;-69
2021/11/29 10:57:23;;;;;;;48.05;19.33;;;;;;;;;;5006371;28;20530;-69
2021/11/29 10:59:52;;;;;;;39.72;16.63;;;;;;;;;;5006671;28;20050;-71
2021/11/29 11:02:22;;;;;;;45.53;18.30;;;;;;;;;;5006470;28;20561;-69
2021/11/29 11:05:01;;;;;;;42.17;17.42;;;;;;;;;;5005500;28;20128;-69
2021/11/29 11:07:28;;;;;;;43.63;17.02;;;;;;;;;;5006331;28;20038;-70
2021/11/29 11:09:58;;;;;;;43.72;17.17;;;;;;;;;;5006500;28;20050;-69
2021/11/29 11:12:27;;;;;;;42.22;16.83;;;;;;;;;;5006399;28;20046;-68
2021/11/29 11:14:57;;;;;;;40.13;16.23;;;;;;;;;;5007181;28;20435;-70
2021/11/29 11:17:26;;;;;;;41.33;18.45;;;;;;;;;;5006322;28;20439;-69
2021/11/29 11:19:54;;;;;;;47.70;18.40;;;;;;;;;;5007508;28;20045;-69
2021/11/29 11:22:25;;;;;;;40.95;17.08;;;;;;;;;;5010459;28;20042;-69
2021/11/29 11:24:54;;;;;;;47.42;18.23;;;;;;;;;;5011059;28;20486;-70
2021/11/29 11:27:23;;;;;;;48.53;19.35;;;;;;;;;;5008747;28;20270;-70
2021/11/29 11:29:53;;;;;;;41.80;16.73;;;;;;;;;;5009736;28;20065;-68
2021/11/29 11:32:32;;;;;;;47.28;17.83;;;;;;;;;;5009949;28;20064;-70
2021/11/29 11:35:02;;;;;;;42.80;16.80;;;;;;;;;;5010157;28;20053;-69
2021/11/29 11:37:32;;;;;;;44.42;18.52;;;;;;;;;;5009478;28;20058;-70
2021/11/29 11:40:00;;;;;;;42.13;17.42;;;;;;;;;;5010316;28;20068;-69
2021/11/29 11:42:29;;;;;;;55.80;20.55;;;;;;;;;;5009786;28;20053;-69
2021/11/29 11:44:57;;;;;;;48.05;18.63;;;;;;;;;;5009767;28;20081;-70
2021/11/29 11:47:26;;;;;;;39.25;16.98;;;;;;;;;;5009446;28;20075;-70
2021/11/29 11:50:10;;;;;;;44.10;18.23;;;;;;;;;;5009561;28;20458;-69
2021/11/29 11:52:37;;;;;;;49.50;18.10;;;;;;;;;;5030442;28;20049;-64
2021/11/29 11:55:05;;;;;;;45.05;17.00;;;;;;;;;;5032793;28;20080;-62
2021/11/29 11:57:33;;;;;;;45.40;17.73;;;;;;;;;;5033912;28;20075;-63
2021/11/29 12:00:16;;;;;;;38.22;15.18;;;;;;;;;;5033449;28;20525;-63
2021/11/29 12:03:07;;;;;;;33.65;13.80;;;;;;;;;;5033366;28;20075;-63
2021/11/29 12:05:36;;;;;;;30.10;11.03;;;;;;;;;;5032414;28;20093;-66
2021/11/29 12:08:05;;;;;;;31.85;11.95;;;;;;;;;;5033349;28;20049;-65
2021/11/29 12:10:38;;;;;;;28.75;10.35;;;;;;;;;;5033307;28;20050;-63
2021/11/29 12:13:11;;;;;;;27.25;10.30;;;;;;;;;;5032962;28;20056;-62
2021/11/29 12:15:44;;;;;;;25.05;10.10;;;;;;;;;;5034506;28;20049;-63
2021/11/29 12:18:12;;;;;;;24.90;9.27;;;;;;;;;;5034457;28;20084;-64
2021/11/29 12:20:39;;;;;;;22.80;8.90;;;;;;;;;;5032773;28;20056;-62
2021/11/29 12:23:40;;;;;;;28.80;10.50;;;;;;;;;;5032501;28;20049;-63
2021/11/29 12:26:07;;;;;;;32.10;12.13;;;;;;;;;;5032538;28;20052;-63
2021/11/29 12:28:40;;;;;;;29.35;10.73;;;;;;;;;;5032248;28;20279;-62
2021/11/29 12:31:36;;;;;;;32.08;12.60;;;;;;;;;;5031881;28;20054;-63
2021/11/29 12:34:06;;;;;;;33.30;12.18;;;;;;;;;;5032675;28;20128;-61
2021/11/29 12:37:12;;;;;;;29.80;11.73;;;;;;;;;;5033190;28;20099;-63
2021/11/29 12:39:57;;;;;;;27.13;10.57;;;;;;;;;;5032618;28;20057;-63
2021/11/29 12:43:00;;;;;;;28.80;11.40;;;;;;;;;;5032828;28;20057;-63
2021/11/29 12:45:30;;;;;;;31.98;11.80;;;;;;;;;;5032434;28;20154;-63
2021/11/29 12:48:16;;;;;;;37.35;12.52;;;;;;;;;;5032396;28;20414;-62
2021/11/29 12:50:54;;;;;;;26.38;10.73;;;;;;;;;;5032003;28;20562;-62
2021/11/29 12:53:33;;;;;;;27.30;12.20;;;;;;;;;;5032036;28;20107;-61
2021/11/29 12:56:17;;;;;;;27.40;10.60;;;;;;;;;;5031939;28;20053;-62
2021/11/29 12:58:54;;;;;;;32.17;11.90;;;;;;;;;;5032601;28;20061;-62
2021/11/29 13:01:23;;;;;;;26.50;10.60;;;;;;;;;;5032418;28;20046;-62
2021/11/29 13:03:53;;;;;;;28.00;10.77;;;;;;;;;;5033229;28;20103;-61
2021/11/29 13:06:28;;;;;;;28.65;11.65;;;;;;;;;;5032473;28;20108;-62
2021/11/29 13:09:12;;;;;;;28.70;11.02;;;;;;;;;;5033438;28;20446;-62
2021/11/29 13:11:40;;;;;;;24.77;10.52;;;;;;;;;;5032764;28;20095;-63
2021/11/29 13:14:19;;;;;;;29.40;10.70;;;;;;;;;;5032875;28;20046;-63
2021/11/29 13:16:50;;;;;;;25.80;10.30;;;;;;;;;;5033175;28;20418;-63
2021/11/29 13:19:23;;;;;;;27.35;10.07;;;;;;;;;;5032659;28;20054;-63
2021/11/29 13:21:53;;;;;;;24.27;10.52;;;;;;;;;;5032446;28;20092;-62
2021/11/29 13:24:26;;;;;;;31.80;13.10;;;;;;;;;;5032278;28;20049;-62
2021/11/29 13:26:58;;;;;;;33.50;11.73;;;;;;;;;;5033017;28;20049;-62
2021/11/29 13:29:28;;;;;;;31.90;11.80;;;;;;;;;;5033332;28;20259;-62
2021/11/29 13:32:00;;;;;;;28.77;11.65;;;;;;;;;;5032647;28;20414;-62
2021/11/29 13:34:31;;;;;;;33.03;11.48;;;;;;;;;;5033018;28;20115;-63
2021/11/29 13:37:00;;;;;;;24.77;9.73;;;;;;;;;;5032806;28;20050;-62
2021/11/29 13:39:31;;;;;;;26.98;10.93;;;;;;;;;;5032750;28;20049;-63
2021/11/29 13:42:16;;;;;;;27.85;11.80;;;;;;;;;;5032934;28;20400;-62
2021/11/29 13:44:54;;;;;;;28.13;12.60;;;;;;;;;;5032669;28;20060;-62
2021/11/29 13:47:26;;;;;;;29.25;10.32;;;;;;;;;;5033348;28;20060;-62
2021/11/29 13:50:01;;;;;;;29.77;11.00;;;;;;;;;;5032302;28;20085;-62
2021/11/29 13:52:28;;;;;;;25.85;10.27;;;;;;;;;;5032433;28;20057;-62
2021/11/29 13:54:58;;;;;;;23.13;8.88;;;;;;;;;;5032490;28;20042;-62
2021/11/29 13:57:37;;;;;;;23.38;9.13;;;;;;;;;;5032157;28;20053;-62
2021/11/29 14:00:29;;;;;;;19.05;8.50;;;;;;;;;;5031687;28;20056;-62
2021/11/29 14:03:13;;;;;;;18.52;7.60;;;;;;;;;;5031208;28;20332;-63
2021/11/29 14:05:43;;;;;;;21.75;8.57;;;;;;;;;;5031586;28;20512;-62
2021/11/29 14:08:12;;;;;;;22.60;9.70;;;;;;;;;;5031553;28;20048;-62
2021/11/29 14:10:44;;;;;;;22.88;9.48;;;;;;;;;;5031505;28;20049;-62
2021/11/29 14:13:13;;;;;;;21.55;9.23;;;;;;;;;;5031310;28;20141;-62
2021/11/29 14:15:58;;;;;;;29.73;10.50;;;;;;;;;;5031465;28;20152;-62
2021/11/29 14:18:29;;;;;;;21.75;8.43;;;;;;;;;;5030910;28;20053;-63
2021/11/29 14:20:59;;;;;;;;;;;;;;;;;;5031643;28;20049;-62
2021/11/29 14:23:47;;;;;;;25.63;10.80;;;;;;;;;;5031187;28;19921;-61
2021/11/29 14:26:27;;;;;;;21.55;8.85;;;;;;;;;;5030985;28;20137;-63
2021/11/29 14:28:55;;;;;;;24.08;8.88;;;;;;;;;;5030721;28;20045;-62
2021/11/29 14:31:24;;;;;;;23.27;8.43;;;;;;;;;;5029630;28;20053;-62